createdAt,value
2017-06-03T00:00:35.397Z,0
2017-06-03T00:01:51.122Z,0
2017-06-03T00:03:06.872Z,0
2017-06-03T00:04:22.338Z,0
2017-06-03T00:05:37.985Z,0
2017-06-03T00:06:53.457Z,0
2017-06-03T00:08:08.914Z,0
2017-06-03T00:09:24.492Z,0
2017-06-03T00:10:38.922Z,0
2017-06-03T00:11:54.420Z,0
2017-06-03T00:13:09.930Z,0
2017-06-03T00:14:25.303Z,0
2017-06-03T00:15:39.498Z,0
2017-06-03T00:16:54.945Z,0
2017-06-03T00:18:10.364Z,0
2017-06-03T00:19:25.848Z,0
2017-06-03T00:20:41.505Z,0
2017-06-03T00:21:56.924Z,0
2017-06-03T00:23:12.387Z,0
2017-06-03T00:24:26.503Z,0
2017-06-03T00:25:42.178Z,0
2017-06-03T00:26:57.641Z,0
2017-06-03T00:28:13.079Z,0
2017-06-03T00:29:28.215Z,0
2017-06-03T00:30:43.526Z,0
2017-06-03T00:31:58.993Z,0
2017-06-03T00:33:14.395Z,0
2017-06-03T00:34:29.876Z,0
2017-06-03T00:35:45.544Z,0
2017-06-03T00:37:00.901Z,0
2017-06-03T00:38:15.053Z,0
2017-06-03T00:39:30.524Z,0
2017-06-03T00:40:43.390Z,0
2017-06-03T00:41:59.030Z,0
2017-06-03T00:43:13.169Z,0
2017-06-03T00:44:28.572Z,0
2017-06-03T00:45:43.975Z,0
2017-06-03T00:46:58.562Z,0
2017-06-03T00:48:12.676Z,0
2017-06-03T00:49:26.801Z,0
2017-06-03T00:50:40.977Z,0
2017-06-03T00:51:56.654Z,0
2017-06-03T00:53:12.076Z,0
2017-06-03T00:54:27.524Z,0
2017-06-03T00:55:43.185Z,0
2017-06-03T00:56:58.869Z,0
2017-06-03T00:58:12.995Z,0
2017-06-03T00:59:28.492Z,0
2017-06-03T01:00:43.899Z,0
2017-06-03T01:01:58.241Z,0
2017-06-03T01:03:13.732Z,0
2017-06-03T01:04:29.211Z,0
2017-06-03T01:05:44.766Z,0
2017-06-03T01:07:00.738Z,0
2017-06-03T01:08:16.213Z,0
2017-06-03T01:09:31.873Z,0
2017-06-03T01:10:47.411Z,0
2017-06-03T01:12:03.113Z,0
2017-06-03T01:13:17.122Z,0
2017-06-03T01:14:32.588Z,0
2017-06-03T01:15:46.795Z,0
2017-06-03T01:17:02.477Z,0
2017-06-03T01:18:16.483Z,0
2017-06-03T01:19:31.958Z,0
2017-06-03T01:20:47.346Z,0
2017-06-03T01:22:03.233Z,0
2017-06-03T01:23:18.708Z,0
2017-06-03T01:24:34.154Z,0
2017-06-03T01:26:20.915Z,0
2017-06-03T01:27:36.833Z,0
2017-06-03T01:28:52.469Z,0
2017-06-03T01:30:08.005Z,0
2017-06-03T01:31:20.836Z,0
2017-06-03T01:32:36.424Z,0
2017-06-03T01:33:51.884Z,0
2017-06-03T01:35:07.356Z,0
2017-06-03T01:36:22.796Z,0
2017-06-03T01:37:38.703Z,0
2017-06-03T01:38:52.517Z,0
2017-06-03T01:40:07.940Z,0
2017-06-03T01:41:23.420Z,0
2017-06-03T01:42:39.092Z,0
2017-06-03T01:43:54.618Z,0
2017-06-03T01:45:10.328Z,0
2017-06-03T01:46:25.758Z,0
2017-06-03T01:48:12.264Z,0
2017-06-03T01:49:27.710Z,0
2017-06-03T01:50:43.129Z,0
2017-06-03T01:51:58.583Z,0
2017-06-03T01:53:14.559Z,0
2017-06-03T01:54:30.167Z,0
2017-06-03T01:55:44.297Z,0
2017-06-03T01:56:59.348Z,0
2017-06-03T01:58:13.493Z,0
2017-06-03T01:59:29.441Z,0
2017-06-03T02:00:44.886Z,0
2017-06-03T02:02:00.454Z,0
2017-06-03T02:03:16.270Z,0
2017-06-03T02:04:31.745Z,0
2017-06-03T02:05:47.190Z,0
2017-06-03T02:07:02.906Z,0
2017-06-03T02:08:18.528Z,0
2017-06-03T02:09:34.263Z,0
2017-06-03T02:10:49.698Z,0
2017-06-03T02:12:02.543Z,0
2017-06-03T02:13:18.248Z,0
2017-06-03T02:14:33.695Z,4
2017-06-03T02:15:47.853Z,4
2017-06-03T02:17:03.623Z,0
2017-06-03T02:18:19.213Z,0
2017-06-03T02:19:34.884Z,4
2017-06-03T02:20:50.588Z,4
2017-06-03T02:22:06.262Z,4
2017-06-03T02:23:22.160Z,4
2017-06-03T02:24:37.611Z,8
2017-06-03T02:25:53.249Z,4
2017-06-03T02:27:08.730Z,8
2017-06-03T02:28:23.099Z,8
2017-06-03T02:29:38.526Z,8
2017-06-03T02:30:53.989Z,8
2017-06-03T02:32:09.460Z,12
2017-06-03T02:33:25.116Z,12
2017-06-03T02:34:40.585Z,16
2017-06-03T02:35:54.769Z,16
2017-06-03T02:37:10.266Z,20
2017-06-03T02:38:25.877Z,24
2017-06-03T02:39:41.388Z,28
2017-06-03T02:40:56.826Z,28
2017-06-03T02:42:12.293Z,32
2017-06-03T02:43:28.372Z,36
2017-06-03T02:44:43.835Z,40
2017-06-03T02:45:59.494Z,44
2017-06-03T02:47:14.897Z,48
2017-06-03T02:48:30.536Z,56
2017-06-03T02:49:46.031Z,64
2017-06-03T02:51:00.161Z,72
2017-06-03T02:52:15.595Z,76
2017-06-03T02:53:31.212Z,88
2017-06-03T02:54:46.601Z,100
2017-06-03T02:56:02.066Z,112
2017-06-03T02:57:16.225Z,124
2017-06-03T02:58:31.828Z,136
2017-06-03T02:59:46.004Z,152
2017-06-03T03:01:01.391Z,168
2017-06-03T03:02:16.887Z,188
2017-06-03T03:03:31.053Z,204
2017-06-03T03:04:46.511Z,228
2017-06-03T03:06:01.989Z,248
2017-06-03T03:07:17.413Z,272
2017-06-03T03:08:33.058Z,300
2017-06-03T03:09:48.475Z,328
2017-06-03T03:11:01.322Z,360
2017-06-03T03:12:16.790Z,396
2017-06-03T03:13:32.870Z,424
2017-06-03T03:14:48.320Z,452
2017-06-03T03:16:03.777Z,472
2017-06-03T03:17:19.187Z,492
2017-06-03T03:18:35.262Z,504
2017-06-03T03:19:50.743Z,524
2017-06-03T03:21:03.419Z,540
2017-06-03T03:22:18.812Z,556
2017-06-03T03:23:34.245Z,568
2017-06-03T03:24:49.886Z,588
2017-06-03T03:26:05.347Z,600
2017-06-03T03:27:20.791Z,616
2017-06-03T03:28:36.243Z,632
2017-06-03T03:29:51.956Z,652
2017-06-03T03:31:07.427Z,668
2017-06-03T03:32:22.916Z,680
2017-06-03T03:33:35.714Z,676
2017-06-03T03:34:51.579Z,672
2017-06-03T03:36:05.631Z,676
2017-06-03T03:37:21.078Z,696
2017-06-03T03:38:36.464Z,728
2017-06-03T03:39:51.072Z,760
2017-06-03T03:41:06.496Z,800
2017-06-03T03:42:21.941Z,848
2017-06-03T03:43:35.883Z,916
2017-06-03T03:44:51.542Z,1004
2017-06-03T03:46:06.972Z,1092
2017-06-03T03:47:21.148Z,1180
2017-06-03T03:48:35.356Z,1260
2017-06-03T03:49:51.050Z,1348
2017-06-03T03:51:06.469Z,1432
2017-06-03T03:52:21.889Z,1500
2017-06-03T03:53:37.261Z,1548
2017-06-03T03:54:51.965Z,1588
2017-06-03T03:56:07.418Z,1616
2017-06-03T03:57:22.824Z,1616
2017-06-03T03:58:38.576Z,1608
2017-06-03T03:59:54.187Z,1612
2017-06-03T04:01:08.288Z,1636
2017-06-03T04:02:23.739Z,1668
2017-06-03T04:03:39.154Z,1696
2017-06-03T04:04:54.830Z,1708
2017-06-03T04:06:10.498Z,1752
2017-06-03T04:07:25.998Z,1800
2017-06-03T04:08:41.450Z,1844
2017-06-03T04:09:57.368Z,1868
2017-06-03T04:11:12.745Z,1904
2017-06-03T04:12:28.191Z,1976
2017-06-03T04:13:43.634Z,2024
2017-06-03T04:14:59.515Z,2080
2017-06-03T04:16:14.593Z,2172
2017-06-03T04:17:30.101Z,2284
2017-06-03T04:18:45.563Z,2428
2017-06-03T04:19:59.772Z,2620
2017-06-03T04:21:13.882Z,2840
2017-06-03T04:22:28.236Z,3040
2017-06-03T04:23:43.680Z,3220
2017-06-03T04:24:59.365Z,3420
2017-06-03T04:26:14.995Z,3700
2017-06-03T04:27:30.407Z,4036
2017-06-03T04:28:45.788Z,4364
2017-06-03T04:30:01.404Z,4636
2017-06-03T04:31:16.791Z,4816
2017-06-03T04:32:32.399Z,4788
2017-06-03T04:33:46.489Z,4596
2017-06-03T04:35:02.078Z,4328
2017-06-03T04:36:17.469Z,4056
2017-06-03T04:37:32.935Z,3804
2017-06-03T04:38:48.403Z,3540
2017-06-03T04:40:04.051Z,3256
2017-06-03T04:41:18.135Z,2900
2017-06-03T04:42:33.707Z,2500
2017-06-03T04:43:49.360Z,2140
2017-06-03T04:45:05.013Z,1852
2017-06-03T04:46:18.995Z,1684
2017-06-03T04:47:34.473Z,1592
2017-06-03T04:48:49.885Z,1540
2017-06-03T04:50:05.507Z,1512
2017-06-03T04:51:21.014Z,1536
2017-06-03T04:52:32.419Z,1620
2017-06-03T04:53:47.828Z,1716
2017-06-03T04:55:03.751Z,1764
2017-06-03T04:56:19.444Z,1808
2017-06-03T04:57:32.273Z,1872
2017-06-03T04:58:47.658Z,1952
2017-06-03T05:00:01.804Z,2048
2017-06-03T05:01:17.429Z,2172
2017-06-03T05:02:32.953Z,2280
2017-06-03T05:03:48.411Z,2332
2017-06-03T05:05:02.535Z,2316
2017-06-03T05:06:18.193Z,2288
2017-06-03T05:07:33.642Z,2164
2017-06-03T05:08:49.136Z,2008
2017-06-03T05:10:04.566Z,1892
2017-06-03T05:11:18.794Z,1772
2017-06-03T05:12:33.074Z,1748
2017-06-03T05:13:48.717Z,1760
2017-06-03T05:15:33.761Z,1740
2017-06-03T05:16:48.250Z,1780
2017-06-03T05:18:03.704Z,1768
2017-06-03T05:19:19.169Z,1648
2017-06-03T05:20:34.572Z,1596
2017-06-03T05:21:50.213Z,1688
2017-06-03T05:23:05.810Z,1756
2017-06-03T05:24:20.886Z,1708
2017-06-03T05:25:36.254Z,1716
2017-06-03T05:26:52.064Z,1740
2017-06-03T05:28:07.485Z,1832
2017-06-03T05:29:22.970Z,1980
2017-06-03T05:30:38.348Z,2140
2017-06-03T05:31:53.950Z,2316
2017-06-03T05:33:09.551Z,2512
2017-06-03T05:34:24.986Z,2724
2017-06-03T05:35:40.470Z,2944
2017-06-03T05:36:56.164Z,3212
2017-06-03T05:38:11.555Z,3548
2017-06-03T05:39:25.817Z,3896
2017-06-03T05:40:41.352Z,4284
2017-06-03T05:41:57.040Z,4704
2017-06-03T05:43:12.756Z,5144
2017-06-03T05:44:28.220Z,5560
2017-06-03T05:45:42.213Z,5968
2017-06-03T05:46:57.929Z,6360
2017-06-03T05:48:13.320Z,6652
2017-06-03T05:49:28.845Z,6880
2017-06-03T05:50:44.240Z,7052
2017-06-03T05:51:59.893Z,7156
2017-06-03T05:53:15.309Z,7120
2017-06-03T05:54:30.841Z,6952
2017-06-03T05:55:46.322Z,6640
2017-06-03T05:57:01.923Z,6364
2017-06-03T05:58:16.087Z,6332
2017-06-03T05:59:31.485Z,6288
2017-06-03T06:00:45.575Z,6088
2017-06-03T06:02:01.200Z,5844
2017-06-03T06:03:16.588Z,5552
2017-06-03T06:04:30.662Z,5240
2017-06-03T06:05:46.131Z,4972
2017-06-03T06:07:01.778Z,4680
2017-06-03T06:08:17.334Z,4504
2017-06-03T06:09:31.377Z,4348
2017-06-03T06:10:46.911Z,4204
2017-06-03T06:12:02.541Z,4236
2017-06-03T06:13:17.986Z,4308
2017-06-03T06:14:33.375Z,4280
2017-06-03T06:15:47.528Z,4396
2017-06-03T06:17:03.278Z,4836
2017-06-03T06:18:18.729Z,5428
2017-06-03T06:19:34.411Z,6068
2017-06-03T06:20:49.854Z,6412
2017-06-03T06:22:05.564Z,6536
2017-06-03T06:23:18.454Z,6644
2017-06-03T06:24:33.903Z,7240
2017-06-03T06:25:49.756Z,8080
2017-06-03T06:27:02.821Z,8888
2017-06-03T06:28:18.239Z,9400
2017-06-03T06:29:30.931Z,9460
2017-06-03T06:31:17.470Z,8700
2017-06-03T06:32:30.589Z,8612
2017-06-03T06:33:46.083Z,9168
2017-06-03T06:35:01.523Z,10084
2017-06-03T06:36:16.965Z,11212
2017-06-03T06:37:31.326Z,12332
2017-06-03T06:38:46.743Z,13356
2017-06-03T06:40:00.908Z,13656
2017-06-03T06:41:16.331Z,13776
2017-06-03T06:42:30.738Z,13696
2017-06-03T06:43:46.301Z,14156
2017-06-03T06:45:01.791Z,14228
2017-06-03T06:46:16.826Z,13388
2017-06-03T06:47:32.533Z,12000
2017-06-03T06:48:47.981Z,11132
2017-06-03T06:50:03.336Z,10900
2017-06-03T06:51:18.710Z,10604
2017-06-03T06:52:34.419Z,10100
2017-06-03T06:53:48.590Z,9548
2017-06-03T06:55:04.444Z,9604
2017-06-03T06:56:19.885Z,9732
2017-06-03T06:57:35.592Z,9772
2017-06-03T06:58:51.098Z,9724
2017-06-03T07:00:06.555Z,9188
2017-06-03T07:01:21.967Z,8580
2017-06-03T07:02:37.689Z,7952
2017-06-03T07:03:53.146Z,7200
2017-06-03T07:05:08.585Z,6792
2017-06-03T07:06:24.531Z,6496
2017-06-03T07:07:40.180Z,6228
2017-06-03T07:08:55.673Z,5996
2017-06-03T07:10:11.080Z,6092
2017-06-03T07:11:25.275Z,6212
2017-06-03T07:12:40.898Z,6120
2017-06-03T07:13:56.596Z,5928
2017-06-03T07:15:10.959Z,5832
2017-06-03T07:16:24.941Z,5820
2017-06-03T07:17:40.885Z,5548
2017-06-03T07:18:56.323Z,5092
2017-06-03T07:20:10.529Z,4868
2017-06-03T07:21:26.050Z,4992
2017-06-03T07:22:40.179Z,5240
2017-06-03T07:23:55.778Z,5488
2017-06-03T07:25:11.479Z,5656
2017-06-03T07:26:26.933Z,5804
2017-06-03T07:27:42.669Z,5784
2017-06-03T07:28:58.342Z,5820
2017-06-03T07:30:13.799Z,5792
2017-06-03T07:31:29.202Z,5768
2017-06-03T07:32:44.634Z,5568
2017-06-03T07:33:58.938Z,5140
2017-06-03T07:35:11.818Z,4864
2017-06-03T07:36:27.285Z,4552
2017-06-03T07:37:42.759Z,4108
2017-06-03T07:38:58.377Z,3636
2017-06-03T07:40:13.807Z,3588
2017-06-03T07:41:29.327Z,3812
2017-06-03T07:42:44.774Z,3896
2017-06-03T07:44:00.452Z,3596
2017-06-03T07:45:15.844Z,3064
2017-06-03T07:46:31.284Z,2768
2017-06-03T07:47:46.766Z,2720
2017-06-03T07:49:02.476Z,2800
2017-06-03T07:50:17.919Z,2944
2017-06-03T07:51:32.121Z,3088
2017-06-03T07:52:46.092Z,3344
2017-06-03T07:54:01.892Z,3676
2017-06-03T07:55:17.364Z,3692
2017-06-03T07:56:32.847Z,3504
2017-06-03T07:57:48.222Z,3316
2017-06-03T07:59:02.874Z,3160
2017-06-03T08:00:18.359Z,3012
2017-06-03T08:01:33.850Z,2900
2017-06-03T08:02:49.483Z,2888
2017-06-03T08:04:05.190Z,2928
2017-06-03T08:05:20.652Z,2960
2017-06-03T08:06:34.792Z,3028
2017-06-03T08:07:50.228Z,3148
2017-06-03T08:09:04.598Z,3216
2017-06-03T08:10:20.161Z,3208
2017-06-03T08:11:35.656Z,3168
2017-06-03T08:12:48.396Z,3148
2017-06-03T08:14:02.983Z,3132
2017-06-03T08:15:18.723Z,3260
2017-06-03T08:16:32.817Z,3440
2017-06-03T08:17:46.928Z,3492
2017-06-03T08:19:02.583Z,3472
2017-06-03T08:20:17.986Z,3488
2017-06-03T08:21:30.826Z,3496
2017-06-03T08:22:46.260Z,3420
2017-06-03T08:24:01.544Z,3248
2017-06-03T08:25:17.004Z,3136
2017-06-03T08:26:32.479Z,3048
2017-06-03T08:27:46.633Z,2972
2017-06-03T08:29:02.336Z,2928
2017-06-03T08:30:17.762Z,2904
2017-06-03T08:31:33.240Z,2904
2017-06-03T08:32:48.695Z,2928
2017-06-03T08:34:04.371Z,2996
2017-06-03T08:35:19.977Z,3096
2017-06-03T08:36:35.414Z,3220
2017-06-03T08:37:50.869Z,3420
2017-06-03T08:39:06.535Z,3672
2017-06-03T08:40:22.292Z,3928
2017-06-03T08:41:37.689Z,4108
2017-06-03T08:42:51.923Z,4248
2017-06-03T08:44:07.985Z,4372
2017-06-03T08:45:23.694Z,4464
2017-06-03T08:46:37.836Z,4560
2017-06-03T08:47:53.344Z,4652
2017-06-03T08:49:09.029Z,4816
2017-06-03T08:50:24.502Z,5008
2017-06-03T08:51:40.421Z,5296
2017-06-03T08:52:55.865Z,5632
2017-06-03T08:54:11.559Z,6004
2017-06-03T08:55:26.984Z,6436
2017-06-03T08:56:42.412Z,6900
2017-06-03T08:57:57.907Z,7516
2017-06-03T08:59:12.384Z,8260
2017-06-03T09:00:26.592Z,8980
2017-06-03T09:01:41.694Z,9280
2017-06-03T09:02:57.070Z,8900
2017-06-03T09:04:12.867Z,7920
2017-06-03T09:05:28.389Z,6476
2017-06-03T09:06:43.818Z,5436
2017-06-03T09:07:59.318Z,4772
2017-06-03T09:09:14.849Z,3980
2017-06-03T09:10:30.494Z,3328
2017-06-03T09:11:46.068Z,2944
2017-06-03T09:13:01.475Z,2704
2017-06-03T09:14:17.189Z,2548
2017-06-03T09:15:32.638Z,2392
2017-06-03T09:16:46.856Z,2248
2017-06-03T09:18:02.262Z,2136
2017-06-03T09:19:13.707Z,2044
2017-06-03T09:20:29.426Z,2012
2017-06-03T09:21:45.225Z,2100
2017-06-03T09:23:00.732Z,2236
2017-06-03T09:24:14.870Z,2168
2017-06-03T09:25:30.657Z,2308
2017-06-03T09:26:46.110Z,2624
2017-06-03T09:28:01.578Z,3080
2017-06-03T09:29:15.698Z,3644
2017-06-03T09:30:30.448Z,4448
2017-06-03T09:32:16.681Z,5172
2017-06-03T09:33:32.326Z,5332
2017-06-03T09:34:46.374Z,5504
2017-06-03T09:36:00.808Z,5640
2017-06-03T09:37:16.317Z,5772
2017-06-03T09:38:32.003Z,5972
2017-06-03T09:39:47.667Z,6296
2017-06-03T09:41:03.325Z,6792
2017-06-03T09:42:17.355Z,7140
2017-06-03T09:43:31.482Z,7704
2017-06-03T09:44:47.016Z,8168
2017-06-03T09:46:02.753Z,8284
2017-06-03T09:47:16.836Z,8240
2017-06-03T09:48:32.317Z,7644
2017-06-03T09:49:47.533Z,7104
2017-06-03T09:51:02.141Z,7356
2017-06-03T09:52:17.705Z,7820
2017-06-03T09:53:33.186Z,7776
2017-06-03T09:54:48.883Z,7316
2017-06-03T09:56:04.613Z,7152
2017-06-03T09:57:18.816Z,7168
2017-06-03T09:58:34.337Z,6756
2017-06-03T09:59:49.794Z,6404
2017-06-03T10:01:05.233Z,6084
2017-06-03T10:02:20.303Z,5156
2017-06-03T10:03:34.443Z,4400
2017-06-03T10:04:50.064Z,3820
2017-06-03T10:06:05.732Z,3904
2017-06-03T10:07:18.601Z,4336
2017-06-03T10:08:34.184Z,5040
2017-06-03T10:09:48.388Z,5748
2017-06-03T10:11:02.903Z,6760
2017-06-03T10:12:18.480Z,8060
2017-06-03T10:13:33.947Z,9124
2017-06-03T10:14:49.426Z,10268
2017-06-03T10:16:05.233Z,11216
2017-06-03T10:17:20.353Z,11768
2017-06-03T10:18:35.858Z,12084
2017-06-03T10:19:51.306Z,12436
2017-06-03T10:21:06.986Z,12916
2017-06-03T10:22:22.469Z,13628
2017-06-03T10:23:36.659Z,14272
2017-06-03T10:24:50.474Z,15436
2017-06-03T10:26:03.432Z,16960
2017-06-03T10:27:19.205Z,19296
2017-06-03T10:28:34.665Z,22688
2017-06-03T10:29:47.896Z,22176
2017-06-03T10:31:02.017Z,25280
2017-06-03T10:32:16.375Z,26432
2017-06-03T10:33:31.876Z,25120
2017-06-03T10:34:47.342Z,27552
2017-06-03T10:36:01.708Z,39552
2017-06-03T10:37:17.444Z,72256
2017-06-03T10:38:32.894Z,26880
2017-06-03T10:39:48.364Z,26752
2017-06-03T10:41:04.201Z,26144
2017-06-03T10:42:19.595Z,22368
2017-06-03T10:43:35.339Z,22464
2017-06-03T10:44:50.808Z,21472
2017-06-03T10:46:06.321Z,20992
2017-06-03T10:47:21.978Z,23648
2017-06-03T10:48:36.121Z,24928
2017-06-03T10:49:51.544Z,25632
2017-06-03T10:51:06.940Z,21472
2017-06-03T10:52:21.327Z,18624
2017-06-03T10:53:36.792Z,16448
2017-06-03T10:54:50.792Z,14668
2017-06-03T10:56:06.293Z,15680
2017-06-03T10:57:20.528Z,17056
2017-06-03T10:58:35.920Z,15564
2017-06-03T10:59:51.327Z,14840
2017-06-03T11:01:06.763Z,13432
2017-06-03T11:02:22.503Z,12192
2017-06-03T11:03:37.990Z,11552
2017-06-03T11:04:53.499Z,11976
2017-06-03T11:06:08.978Z,13368
2017-06-03T11:07:24.685Z,14780
2017-06-03T11:08:40.146Z,15680
2017-06-03T11:09:52.857Z,15020
2017-06-03T11:11:07.012Z,13860
2017-06-03T11:12:22.478Z,14516
2017-06-03T11:13:37.936Z,16000
2017-06-03T11:14:53.425Z,19552
2017-06-03T11:16:08.857Z,26496
2017-06-03T11:17:23.026Z,36544
2017-06-03T11:18:38.664Z,33344
2017-06-03T11:19:54.165Z,58176
2017-06-03T11:21:09.307Z,45760
2017-06-03T11:22:24.700Z,33312
2017-06-03T11:23:39.026Z,51520
2017-06-03T11:24:54.545Z,35648
2017-06-03T11:26:10.031Z,39840
2017-06-03T11:27:25.498Z,30304
2017-06-03T11:28:41.273Z,25312
2017-06-03T11:29:56.784Z,20480
2017-06-03T11:31:12.283Z,18048
2017-06-03T11:32:27.740Z,17024
2017-06-03T11:33:43.690Z,15904
2017-06-03T11:34:59.212Z,14420
2017-06-03T11:36:14.920Z,14368
2017-06-03T11:37:30.441Z,16192
2017-06-03T11:38:46.148Z,19808
2017-06-03T11:40:01.481Z,24608
2017-06-03T11:41:15.621Z,29440
2017-06-03T11:42:31.091Z,40352
2017-06-03T11:43:45.423Z,64448
2017-06-03T11:45:00.885Z,72544
2017-06-03T11:46:15.172Z,77120
2017-06-03T11:47:29.324Z,54208
2017-06-03T11:48:45.203Z,70176
2017-06-03T11:50:00.660Z,66528
2017-06-03T11:51:16.339Z,58496
2017-06-03T11:52:31.813Z,56832
2017-06-03T11:53:47.518Z,56512
2017-06-03T11:55:01.718Z,43680
2017-06-03T11:56:17.170Z,37504
2017-06-03T11:57:32.674Z,46656
2017-06-03T11:58:48.348Z,35840
2017-06-03T12:00:04.146Z,34720
2017-06-03T12:01:19.695Z,45056
2017-06-03T12:02:35.401Z,40448
2017-06-03T12:03:51.182Z,36064
2017-06-03T12:05:06.668Z,32224
2017-06-03T12:06:22.104Z,29984
2017-06-03T12:07:37.590Z,31776
2017-06-03T12:08:53.305Z,32736
2017-06-03T12:10:08.434Z,29920
2017-06-03T12:11:23.884Z,28512
2017-06-03T12:12:39.365Z,27168
2017-06-03T12:13:55.069Z,25504
2017-06-03T12:15:10.478Z,22656
2017-06-03T12:16:26.242Z,20704
2017-06-03T12:17:41.765Z,17888
2017-06-03T12:18:57.698Z,14700
2017-06-03T12:20:13.189Z,12612
2017-06-03T12:21:28.249Z,11980
2017-06-03T12:22:43.714Z,11716
2017-06-03T12:23:59.417Z,11504
2017-06-03T12:25:14.934Z,11752
2017-06-03T12:27:01.309Z,13140
2017-06-03T12:28:17.317Z,13888
2017-06-03T12:29:32.924Z,14248
2017-06-03T12:30:48.009Z,14020
2017-06-03T12:32:03.533Z,13748
2017-06-03T12:33:19.037Z,13860
2017-06-03T12:34:34.692Z,14504
2017-06-03T12:35:50.177Z,15144
2017-06-03T12:37:05.677Z,15208
2017-06-03T12:38:21.074Z,14540
2017-06-03T12:39:36.798Z,13172
2017-06-03T12:40:52.277Z,11812
2017-06-03T12:42:07.658Z,11016
2017-06-03T12:43:23.113Z,10768
2017-06-03T12:44:36.318Z,11116
2017-06-03T12:45:52.086Z,11472
2017-06-03T12:47:07.801Z,11604
2017-06-03T12:48:22.016Z,11796
2017-06-03T12:49:37.666Z,11456
2017-06-03T12:50:53.172Z,10924
2017-06-03T12:52:07.433Z,10480
2017-06-03T12:53:22.886Z,9632
2017-06-03T12:54:38.613Z,8856
2017-06-03T12:55:52.749Z,8760
2017-06-03T12:57:06.914Z,9404
2017-06-03T12:58:21.992Z,10304
2017-06-03T12:59:36.589Z,10760
2017-06-03T13:00:50.767Z,11388
2017-06-03T13:02:06.171Z,12752
2017-06-03T13:03:21.672Z,14020
2017-06-03T13:04:37.373Z,14052
2017-06-03T13:05:51.581Z,13712
2017-06-03T13:07:05.905Z,13816
2017-06-03T13:08:21.371Z,15100
2017-06-03T13:09:35.752Z,16800
2017-06-03T13:10:51.263Z,17088
2017-06-03T13:12:06.731Z,16256
2017-06-03T13:13:22.210Z,15584
2017-06-03T13:14:36.979Z,15200
2017-06-03T13:15:52.400Z,17056
2017-06-03T13:17:07.871Z,18016
2017-06-03T13:18:23.396Z,19456
2017-06-03T13:19:39.161Z,21632
2017-06-03T13:20:54.558Z,23360
2017-06-03T13:22:09.975Z,32480
2017-06-03T13:23:25.474Z,30272
2017-06-03T13:24:41.136Z,39328
2017-06-03T13:25:56.254Z,41728
2017-06-03T13:27:10.433Z,41664
2017-06-03T13:28:25.540Z,39424
2017-06-03T13:29:39.561Z,38560
2017-06-03T13:30:55.697Z,34752
2017-06-03T13:32:11.165Z,33216
2017-06-03T13:33:26.681Z,36128
2017-06-03T13:34:42.324Z,35680
2017-06-03T13:35:56.575Z,38144
2017-06-03T13:37:12.070Z,42432
2017-06-03T13:38:27.827Z,43616
2017-06-03T13:39:43.194Z,41152
2017-06-03T13:40:58.817Z,35808
2017-06-03T13:42:14.301Z,34464
2017-06-03T13:43:29.393Z,34112
2017-06-03T13:44:43.478Z,37664
2017-06-03T13:45:59.232Z,37120
2017-06-03T13:47:14.698Z,33024
2017-06-03T13:48:30.463Z,34496
2017-06-03T13:49:45.962Z,40032
2017-06-03T13:51:01.645Z,57440
2017-06-03T13:52:17.390Z,54560
2017-06-03T13:53:32.769Z,46304
2017-06-03T13:54:45.275Z,41568
2017-06-03T13:56:00.715Z,38912
2017-06-03T13:57:15.084Z,40704
2017-06-03T13:58:30.495Z,39456
2017-06-03T13:59:44.619Z,40352
2017-06-03T14:01:00.074Z,38944
2017-06-03T14:02:16.029Z,41216
2017-06-03T14:03:31.543Z,36864
2017-06-03T14:04:45.680Z,42176
2017-06-03T14:06:00.777Z,48800
2017-06-03T14:07:16.487Z,51168
2017-06-03T14:08:31.987Z,48160
2017-06-03T14:09:47.475Z,49248
2017-06-03T14:11:02.986Z,47200
2017-06-03T14:12:16.102Z,46048
2017-06-03T14:13:28.805Z,45312
2017-06-03T14:14:44.345Z,51008
2017-06-03T14:15:58.577Z,46560
2017-06-03T14:17:12.874Z,48448
2017-06-03T14:18:28.364Z,50400
2017-06-03T14:19:43.836Z,52960
2017-06-03T14:20:58.095Z,49696
2017-06-03T14:22:13.830Z,74688
2017-06-03T14:23:29.530Z,62272
2017-06-03T14:24:45.034Z,41792
2017-06-03T14:26:00.491Z,28256
2017-06-03T14:27:16.456Z,25824
2017-06-03T14:28:32.209Z,35456
2017-06-03T14:29:47.679Z,39296
2017-06-03T14:31:03.101Z,30208
2017-06-03T14:32:18.815Z,23072
2017-06-03T14:33:34.317Z,19680
2017-06-03T14:34:49.721Z,23328
2017-06-03T14:36:05.177Z,32864
2017-06-03T14:37:20.886Z,67968
2017-06-03T14:38:35.039Z,76800
2017-06-03T14:39:47.923Z,68416
2017-06-03T14:41:03.407Z,47232
2017-06-03T14:42:18.873Z,38656
2017-06-03T14:43:34.811Z,31136
2017-06-03T14:44:50.304Z,33952
2017-06-03T14:46:04.602Z,25600
2017-06-03T14:47:20.086Z,22944
2017-06-03T14:48:34.492Z,21408
2017-06-03T14:49:49.938Z,20512
2017-06-03T14:51:05.374Z,22176
2017-06-03T14:52:20.904Z,43328
2017-06-03T14:53:36.555Z,32064
2017-06-03T14:54:52.143Z,44928
2017-06-03T14:56:07.620Z,43808
2017-06-03T14:57:21.977Z,25600
2017-06-03T14:58:37.614Z,54944
2017-06-03T14:59:53.138Z,47264
2017-06-03T15:01:09.030Z,32896
2017-06-03T15:02:23.274Z,24256
2017-06-03T15:03:37.683Z,21152
2017-06-03T15:04:53.136Z,20704
2017-06-03T15:06:08.596Z,19456
2017-06-03T15:07:24.095Z,19840
2017-06-03T15:08:39.774Z,19136
2017-06-03T15:09:55.294Z,18592
2017-06-03T15:11:09.415Z,17984
2017-06-03T15:12:24.887Z,17568
2017-06-03T15:13:40.577Z,17408
2017-06-03T15:14:55.709Z,16960
2017-06-03T15:16:11.250Z,16864
2017-06-03T15:17:26.751Z,16672
2017-06-03T15:18:42.011Z,17344
2017-06-03T15:19:56.425Z,17792
2017-06-03T15:21:12.121Z,17568
2017-06-03T15:22:26.916Z,17344
2017-06-03T15:23:42.603Z,16672
2017-06-03T15:24:58.105Z,14948
2017-06-03T15:26:13.572Z,14152
2017-06-03T15:27:29.065Z,13580
2017-06-03T15:28:44.923Z,13164
2017-06-03T15:30:00.113Z,12372
2017-06-03T15:31:15.788Z,11948
2017-06-03T15:32:29.806Z,11700
2017-06-03T15:33:45.463Z,11776
2017-06-03T15:35:00.950Z,12052
2017-06-03T15:36:16.644Z,12332
2017-06-03T15:37:32.202Z,12480
2017-06-03T15:38:47.901Z,12452
2017-06-03T15:40:02.038Z,12240
2017-06-03T15:41:16.071Z,11892
2017-06-03T15:42:31.677Z,11408
2017-06-03T15:43:47.369Z,10816
2017-06-03T15:45:02.788Z,10312
2017-06-03T15:46:18.483Z,10004
2017-06-03T15:47:33.613Z,9956
2017-06-03T15:48:48.045Z,9996
2017-06-03T15:50:03.569Z,10064
2017-06-03T15:51:17.779Z,10076
2017-06-03T15:52:33.295Z,10052
2017-06-03T15:53:48.599Z,9984
2017-06-03T15:55:04.093Z,9916
2017-06-03T15:56:18.245Z,9856
2017-06-03T15:57:33.783Z,9796
2017-06-03T15:58:49.829Z,9664
2017-06-03T16:00:05.401Z,9364
2017-06-03T16:01:20.872Z,8988
2017-06-03T16:02:34.935Z,8648
2017-06-03T16:03:50.790Z,8340
2017-06-03T16:05:06.470Z,8040
2017-06-03T16:06:21.871Z,7704
2017-06-03T16:07:37.368Z,7352
2017-06-03T16:08:53.283Z,7108
2017-06-03T16:10:08.778Z,6960
2017-06-03T16:11:24.290Z,6840
2017-06-03T16:12:38.328Z,6660
2017-06-03T16:13:53.987Z,6472
2017-06-03T16:15:09.501Z,6448
2017-06-03T16:16:24.962Z,6572
2017-06-03T16:17:39.043Z,6736
2017-06-03T16:18:54.383Z,6908
2017-06-03T16:20:08.689Z,7108
2017-06-03T16:21:24.156Z,7272
2017-06-03T16:22:39.640Z,7380
2017-06-03T16:23:55.313Z,7424
2017-06-03T16:25:10.791Z,7464
2017-06-03T16:26:24.901Z,7496
2017-06-03T16:27:40.475Z,7456
2017-06-03T16:28:54.822Z,7384
2017-06-03T16:30:09.015Z,7368
2017-06-03T16:31:24.506Z,7360
2017-06-03T16:32:39.944Z,7220
2017-06-03T16:33:53.565Z,6892
2017-06-03T16:35:09.043Z,6472
2017-06-03T16:36:24.503Z,6148
2017-06-03T16:37:39.929Z,5996
2017-06-03T16:38:56.032Z,6048
2017-06-03T16:40:11.624Z,6228
2017-06-03T16:41:27.098Z,6432
2017-06-03T16:42:42.587Z,6580
2017-06-03T16:43:58.212Z,6804
2017-06-03T16:45:13.638Z,6992
2017-06-03T16:46:29.034Z,7048
2017-06-03T16:47:40.606Z,6936
2017-06-03T16:48:56.203Z,6808
2017-06-03T16:50:11.651Z,6776